Time;durP1;ratioP1;P1;durP2;ratioP2;P2;SDS_P1;SDS_P2;PMS_P1;PMS_P2;Temp;Humidity;BMP_temperature;BMP_pressure;BME280_temperature;BME280_humidity;BME280_pressure;Samples;Min_cycle;Max_cycle;Signal;HPM_P1;HPM_P2
2022/04/22 00:00:06;;;;;;;8.10;6.83;;;;;;;;;;4999861;28;20235;-63
2022/04/22 00:02:34;;;;;;;7.77;6.97;;;;;;;;;;5008085;28;20221;-62
2022/04/22 00:05:04;;;;;;;8.73;7.70;;;;;;;;;;4991446;28;20231;-62
2022/04/22 00:07:31;;;;;;;9.53;7.73;;;;;;;;;;5010379;28;20207;-62
2022/04/22 00:09:59;;;;;;;8.10;7.13;;;;;;;;;;5021434;28;20215;-63
2022/04/22 00:12:26;;;;;;;8.03;7.23;;;;;;;;;;5018568;28;20199;-62
2022/04/22 00:14:53;;;;;;;8.90;8.00;;;;;;;;;;5020723;28;20692;-62
2022/04/22 00:17:21;;;;;;;8.37;7.50;;;;;;;;;;4997185;28;20216;-61
2022/04/22 00:19:48;;;;;;;10.17;7.63;;;;;;;;;;4992022;28;20233;-64
2022/04/22 00:22:16;;;;;;;8.87;7.43;;;;;;;;;;5009940;28;20218;-61
2022/04/22 00:24:43;;;;;;;8.20;7.40;;;;;;;;;;5006023;28;324371;-63
2022/04/22 00:27:10;;;;;;;8.57;7.67;;;;;;;;;;4996676;28;20207;-62
2022/04/22 00:29:38;;;;;;;8.80;7.70;;;;;;;;;;5012600;28;20199;-62
2022/04/22 00:32:06;;;;;;;8.67;7.77;;;;;;;;;;5008808;28;20214;-63
2022/04/22 00:34:33;;;;;;;8.43;7.63;;;;;;;;;;5013032;28;20233;-62
2022/04/22 00:37:01;;;;;;;8.17;7.40;;;;;;;;;;5013175;28;20795;-63
2022/04/22 00:39:28;;;;;;;8.00;7.23;;;;;;;;;;4999296;28;20274;-62
2022/04/22 00:41:56;;;;;;;10.73;8.03;;;;;;;;;;5004463;28;20215;-63
2022/04/22 00:44:24;;;;;;;9.00;8.10;;;;;;;;;;5008336;28;20277;-63
2022/04/22 00:46:52;;;;;;;9.27;7.77;;;;;;;;;;5017161;28;20206;-63
2022/04/22 00:49:19;;;;;;;9.77;8.33;;;;;;;;;;5007478;28;20219;-63
2022/04/22 00:51:47;;;;;;;8.87;7.97;;;;;;;;;;4994248;28;20207;-63
2022/04/22 00:54:14;;;;;;;9.23;7.97;;;;;;;;;;5001115;28;20257;-63
2022/04/22 00:56:42;;;;;;;9.83;8.57;;;;;;;;;;5011438;28;20206;-62
2022/04/22 00:59:10;;;;;;;10.00;7.90;;;;;;;;;;5010763;28;20239;-62
2022/04/22 01:01:38;;;;;;;9.53;8.40;;;;;;;;;;5005762;28;20665;-62
2022/04/22 01:09:51;;;;;;;10.23;9.00;;;;;;;;;;5011685;28;20205;-61
2022/04/22 01:12:19;;;;;;;9.27;8.30;;;;;;;;;;5008666;28;20203;-63
2022/04/22 01:14:47;;;;;;;9.47;8.47;;;;;;;;;;5007156;28;20596;-62
2022/04/22 01:17:15;;;;;;;10.47;8.93;;;;;;;;;;5002443;28;20592;-62
2022/04/22 01:19:43;;;;;;;9.80;8.80;;;;;;;;;;5008362;28;21428;-63
2022/04/22 01:22:10;;;;;;;8.93;8.03;;;;;;;;;;5012623;28;20210;-64
2022/04/22 01:24:38;;;;;;;12.13;9.37;;;;;;;;;;5017717;28;20941;-64
2022/04/22 01:27:07;;;;;;;9.13;8.23;;;;;;;;;;5019320;28;20330;-63
2022/04/22 01:29:35;;;;;;;9.53;8.40;;;;;;;;;;4998321;28;20203;-61
2022/04/22 01:32:02;;;;;;;10.37;9.20;;;;;;;;;;5005100;28;20258;-62
2022/04/22 01:34:30;;;;;;;9.90;8.90;;;;;;;;;;5015770;28;20235;-61
2022/04/22 01:36:58;;;;;;;10.60;9.07;;;;;;;;;;5021371;28;20231;-61
2022/04/22 01:39:29;;;;;;;10.67;9.43;;;;;;;;;;5001720;28;20215;-62
2022/04/22 01:41:56;;;;;;;11.00;9.90;;;;;;;;;;5015195;28;20233;-62
2022/04/22 01:44:25;;;;;;;11.80;9.50;;;;;;;;;;5004384;28;20223;-62
2022/04/22 01:46:53;;;;;;;10.47;9.37;;;;;;;;;;5005750;28;20658;-62
2022/04/22 01:49:21;;;;;;;10.47;8.90;;;;;;;;;;5002992;28;20200;-62
2022/04/22 01:51:48;;;;;;;11.27;9.47;;;;;;;;;;5005889;28;20207;-62
2022/04/22 01:54:16;;;;;;;10.20;9.10;;;;;;;;;;5021774;28;20203;-64
2022/04/22 01:56:44;;;;;;;10.53;9.43;;;;;;;;;;5018987;28;20285;-64
2022/04/22 01:59:12;;;;;;;15.47;9.80;;;;;;;;;;5022629;28;20209;-63
2022/04/22 02:01:39;;;;;;;10.20;9.17;;;;;;;;;;5000436;28;20239;-62
2022/04/22 02:04:07;;;;;;;11.43;9.40;;;;;;;;;;5009427;28;20212;-62
2022/04/22 02:06:34;;;;;;;12.07;9.20;;;;;;;;;;4998615;28;20635;-61
2022/04/22 02:09:02;;;;;;;10.73;9.67;;;;;;;;;;5005431;28;20218;-61
2022/04/22 02:11:29;;;;;;;10.47;9.40;;;;;;;;;;5017831;28;20259;-62
2022/04/22 02:13:57;;;;;;;10.30;9.20;;;;;;;;;;5018902;28;20206;-61
2022/04/22 02:16:24;;;;;;;11.07;9.90;;;;;;;;;;5006457;28;20226;-63
2022/04/22 02:18:51;;;;;;;13.50;10.73;;;;;;;;;;4992471;28;20218;-61
2022/04/22 02:21:21;;;;;;;11.23;10.03;;;;;;;;;;5004910;28;20218;-62
2022/04/22 02:23:49;;;;;;;12.47;10.57;;;;;;;;;;5010345;28;20204;-62
2022/04/22 02:26:16;;;;;;;12.27;10.83;;;;;;;;;;5014953;28;20241;-62
2022/04/22 02:28:44;;;;;;;11.17;9.77;;;;;;;;;;5002897;28;20203;-62
2022/04/22 02:31:12;;;;;;;12.63;10.40;;;;;;;;;;5007744;28;20799;-62
2022/04/22 02:33:41;;;;;;;11.40;10.23;;;;;;;;;;4998847;28;20609;-62
2022/04/22 02:36:09;;;;;;;11.73;10.53;;;;;;;;;;5012516;28;20231;-62
2022/04/22 02:38:38;;;;;;;13.10;10.60;;;;;;;;;;5009882;28;20684;-62
2022/04/22 02:46:38;;;;;;;12.43;10.53;;;;;;;;;;5024146;28;20238;-62
2022/04/22 02:49:05;;;;;;;12.40;10.60;;;;;;;;;;5006682;28;20231;-62
2022/04/22 02:51:32;;;;;;;12.63;11.10;;;;;;;;;;5003874;28;20206;-63
2022/04/22 02:54:01;;;;;;;15.30;11.53;;;;;;;;;;5017530;28;20215;-63
2022/04/22 02:56:30;;;;;;;13.10;10.83;;;;;;;;;;5001946;28;20230;-63
2022/04/22 02:58:58;;;;;;;12.93;10.87;;;;;;;;;;4995810;28;20337;-63
2022/04/22 03:01:25;;;;;;;11.80;10.53;;;;;;;;;;4997192;28;20227;-62
2022/04/22 03:03:53;;;;;;;13.27;11.37;;;;;;;;;;5004841;28;20203;-62
2022/04/22 03:06:20;;;;;;;14.90;11.63;;;;;;;;;;5004347;28;20328;-62
2022/04/22 03:08:48;;;;;;;15.70;12.53;;;;;;;;;;5019190;28;20902;-61
2022/04/22 03:11:20;;;;;;;15.10;12.47;;;;;;;;;;5011522;28;20923;-61
2022/04/22 03:13:49;;;;;;;14.37;12.57;;;;;;;;;;4998295;28;20203;-63
2022/04/22 03:16:18;;;;;;;13.10;11.43;;;;;;;;;;5000914;28;20317;-63
2022/04/22 03:18:46;;;;;;;14.23;12.53;;;;;;;;;;5000762;28;20269;-60
2022/04/22 03:21:13;;;;;;;15.73;12.67;;;;;;;;;;5014613;28;20731;-61
2022/04/22 03:23:41;;;;;;;14.97;12.17;;;;;;;;;;5015117;28;20238;-63
2022/04/22 03:26:08;;;;;;;13.70;12.23;;;;;;;;;;5012147;28;20231;-64
2022/04/22 03:28:36;;;;;;;14.53;11.90;;;;;;;;;;5017986;28;20198;-61
2022/04/22 03:31:03;;;;;;;13.50;12.03;;;;;;;;;;4993781;28;20211;-62
2022/04/22 03:33:31;;;;;;;16.13;12.70;;;;;;;;;;5000583;28;20215;-61
2022/04/22 03:35:59;;;;;;;14.83;12.23;;;;;;;;;;4996317;28;20709;-61
2022/04/22 03:38:27;;;;;;;15.47;12.90;;;;;;;;;;5002796;28;20229;-61
2022/04/22 03:40:55;;;;;;;16.77;12.83;;;;;;;;;;5001402;28;20359;-61
2022/04/22 03:43:24;;;;;;;14.23;12.73;;;;;;;;;;5016415;28;20208;-61
2022/04/22 03:45:51;;;;;;;15.43;12.33;;;;;;;;;;5002054;28;20218;-62
2022/04/22 03:48:19;;;;;;;16.37;12.73;;;;;;;;;;4999987;28;20225;-61
2022/04/22 03:50:46;;;;;;;18.60;13.23;;;;;;;;;;4998945;28;20207;-62
2022/04/22 03:53:13;;;;;;;17.43;13.33;;;;;;;;;;5013334;28;20234;-62
2022/04/22 03:55:41;;;;;;;16.03;13.23;;;;;;;;;;4999119;28;20241;-62
2022/04/22 03:58:13;;;;;;;15.30;12.43;;;;;;;;;;5003079;28;20258;-61
2022/04/22 04:00:41;;;;;;;17.77;13.53;;;;;;;;;;4996196;28;20239;-61
2022/04/22 04:03:09;;;;;;;14.73;13.03;;;;;;;;;;4995843;28;20230;-62
2022/04/22 04:05:37;;;;;;;15.57;13.57;;;;;;;;;;4980349;28;20223;-61
2022/04/22 04:08:06;;;;;;;16.13;13.80;;;;;;;;;;4989839;28;20210;-61
2022/04/22 04:16:05;;;;;;;17.27;14.07;;;;;;;;;;5014865;28;20226;-63
2022/04/22 04:18:39;;;;;;;16.53;13.80;;;;;;;;;;4990391;28;20207;-62
2022/04/22 04:24:01;;;;;;;17.80;13.60;;;;;;;;;;5020373;28;20238;-62
2022/04/22 04:26:28;;;;;;;16.93;13.70;;;;;;;;;;4995779;28;20234;-62
2022/04/22 04:28:56;;;;;;;18.00;14.07;;;;;;;;;;4998993;28;20214;-62
2022/04/22 04:31:24;;;;;;;16.20;12.97;;;;;;;;;;4993689;28;20222;-62
2022/04/22 04:33:52;;;;;;;15.77;13.47;;;;;;;;;;4999033;28;20245;-61
2022/04/22 04:36:21;;;;;;;19.03;14.13;;;;;;;;;;4999600;28;20241;-62
2022/04/22 04:38:48;;;;;;;17.93;14.57;;;;;;;;;;5014738;28;20225;-62
2022/04/22 04:41:15;;;;;;;17.80;15.00;;;;;;;;;;4989424;28;20226;-62
2022/04/22 04:43:43;;;;;;;17.13;14.63;;;;;;;;;;5007111;28;20213;-62
2022/04/22 04:46:10;;;;;;;16.73;14.03;;;;;;;;;;4997697;28;20235;-62
2022/04/22 04:48:38;;;;;;;20.67;15.53;;;;;;;;;;4987589;28;20297;-61
2022/04/22 04:51:06;;;;;;;20.80;16.67;;;;;;;;;;4990688;28;20203;-62
2022/04/22 04:53:34;;;;;;;21.60;16.27;;;;;;;;;;4990622;28;20219;-62
2022/04/22 04:56:01;;;;;;;23.17;16.57;;;;;;;;;;5017206;28;20230;-62
2022/04/22 04:58:28;;;;;;;19.70;15.80;;;;;;;;;;5004188;28;20727;-61
2022/04/22 05:00:56;;;;;;;19.60;15.90;;;;;;;;;;5001527;28;20222;-63
2022/04/22 05:03:23;;;;;;;22.80;16.43;;;;;;;;;;4992393;28;20272;-63
2022/04/22 05:05:51;;;;;;;18.83;15.83;;;;;;;;;;4993028;28;20711;-63
2022/04/22 05:08:19;;;;;;;21.77;16.93;;;;;;;;;;4996402;28;20711;-62
2022/04/22 05:10:46;;;;;;;20.80;16.03;;;;;;;;;;4993954;28;20676;-62
2022/04/22 05:13:14;;;;;;;21.70;17.30;;;;;;;;;;5002666;28;20230;-62
2022/04/22 05:15:43;;;;;;;20.83;16.67;;;;;;;;;;4987428;28;20984;-63
2022/04/22 05:18:10;;;;;;;20.77;16.73;;;;;;;;;;5009543;28;20210;-63
2022/04/22 05:20:38;;;;;;;23.10;17.50;;;;;;;;;;4998515;28;20218;-62
2022/04/22 05:23:05;;;;;;;21.00;17.20;;;;;;;;;;4994415;28;20211;-62
2022/04/22 05:25:33;;;;;;;23.47;17.83;;;;;;;;;;5000817;28;20237;-63
2022/04/22 05:28:00;;;;;;;22.03;17.37;;;;;;;;;;4995052;28;20202;-62
2022/04/22 05:33:13;;;;;;;23.23;17.73;;;;;;;;;;5020404;28;20679;-63
2022/04/22 05:35:42;;;;;;;21.43;17.37;;;;;;;;;;5003530;28;20913;-63
2022/04/22 05:38:10;;;;;;;20.97;16.97;;;;;;;;;;5002479;28;20206;-63
2022/04/22 05:40:38;;;;;;;19.63;15.57;;;;;;;;;;5020383;28;20229;-62
2022/04/22 05:43:06;;;;;;;18.30;15.93;;;;;;;;;;5008126;28;20297;-62
2022/04/22 05:45:35;;;;;;;20.23;15.77;;;;;;;;;;4991448;28;20223;-63
2022/04/22 05:48:02;;;;;;;20.23;16.77;;;;;;;;;;5000912;28;20222;-64
2022/04/22 05:50:30;;;;;;;20.43;17.10;;;;;;;;;;5002794;28;20214;-62
2022/04/22 05:52:57;;;;;;;21.23;16.63;;;;;;;;;;5000023;28;20211;-62
2022/04/22 05:55:27;;;;;;;19.60;16.30;;;;;;;;;;4999735;28;20230;-62
2022/04/22 05:57:55;;;;;;;20.03;16.27;;;;;;;;;;5020411;28;20581;-62
2022/04/22 06:00:24;;;;;;;21.23;16.43;;;;;;;;;;5007324;28;20199;-62
2022/04/22 06:02:52;;;;;;;19.47;16.23;;;;;;;;;;4992195;28;20203;-63
2022/04/22 06:05:20;;;;;;;19.10;15.80;;;;;;;;;;4999928;28;20289;-61
2022/04/22 06:10:31;;;;;;;18.77;15.27;;;;;;;;;;5013605;28;20212;-61
2022/04/22 06:10:36;;;;;;;18.80;15.27;;;;;;;;;;5021187;28;20534;-63
2022/04/22 06:13:04;;;;;;;17.77;15.07;;;;;;;;;;5010301;28;20211;-63
2022/04/22 06:15:32;;;;;;;20.93;16.30;;;;;;;;;;5007105;28;20301;-64
2022/04/22 06:18:00;;;;;;;18.23;15.33;;;;;;;;;;5020167;28;20207;-64
2022/04/22 06:20:27;;;;;;;20.00;16.47;;;;;;;;;;5006946;28;20237;-64
2022/04/22 06:22:55;;;;;;;18.37;15.20;;;;;;;;;;5008706;28;20215;-62
2022/04/22 06:25:23;;;;;;;19.97;16.23;;;;;;;;;;5004250;28;20237;-63
2022/04/22 06:27:50;;;;;;;19.07;16.43;;;;;;;;;;5006170;28;20544;-63
2022/04/22 06:30:19;;;;;;;20.20;16.47;;;;;;;;;;4996770;28;20788;-63
2022/04/22 06:32:47;;;;;;;18.97;15.73;;;;;;;;;;5017767;28;20206;-61
2022/04/22 06:35:15;;;;;;;20.57;15.77;;;;;;;;;;5002698;28;20227;-62
2022/04/22 06:37:44;;;;;;;17.50;15.47;;;;;;;;;;4999638;28;20207;-62
2022/04/22 06:45:46;;;;;;;16.17;14.30;;;;;;;;;;5018670;28;20219;-62
2022/04/22 06:48:14;;;;;;;18.00;15.30;;;;;;;;;;5009887;28;20302;-63
2022/04/22 06:51:02;;;;;;;16.50;14.70;;;;;;;;;;4996536;28;20210;-62
2022/04/22 06:53:30;;;;;;;17.60;14.97;;;;;;;;;;4997077;28;20202;-62
2022/04/22 06:56:02;;;;;;;18.77;14.93;;;;;;;;;;5004704;28;20629;-62
2022/04/22 06:58:31;;;;;;;17.07;15.17;;;;;;;;;;5002444;28;20305;-63
2022/04/22 07:00:58;;;;;;;16.70;14.50;;;;;;;;;;5001120;28;20246;-62
2022/04/22 07:03:26;;;;;;;17.70;13.83;;;;;;;;;;4989357;28;20203;-62
2022/04/22 07:05:55;;;;;;;16.60;14.77;;;;;;;;;;4985874;28;20231;-62
2022/04/22 07:08:22;;;;;;;15.80;14.10;;;;;;;;;;5002684;28;20215;-62
2022/04/22 07:10:55;;;;;;;16.73;14.57;;;;;;;;;;4997156;28;20212;-61
2022/04/22 07:13:23;;;;;;;16.20;14.40;;;;;;;;;;5018460;28;20203;-63
2022/04/22 07:15:51;;;;;;;16.23;14.50;;;;;;;;;;4994982;28;20214;-64
2022/04/22 07:18:18;;;;;;;15.77;13.80;;;;;;;;;;5005141;28;20209;-64
2022/04/22 07:20:47;;;;;;;17.60;15.37;;;;;;;;;;5009155;28;20673;-63
2022/04/22 07:23:15;;;;;;;17.00;14.60;;;;;;;;;;5007796;28;20545;-61
2022/04/22 07:25:48;;;;;;;16.30;14.57;;;;;;;;;;4997661;28;20238;-62
2022/04/22 07:28:15;;;;;;;16.83;14.07;;;;;;;;;;4995704;28;20210;-65
2022/04/22 07:30:46;;;;;;;14.77;13.27;;;;;;;;;;5007567;28;21273;-64
2022/04/22 07:33:13;;;;;;;17.23;13.97;;;;;;;;;;4996037;28;20202;-62
2022/04/22 07:35:41;;;;;;;15.43;13.83;;;;;;;;;;5001107;28;20292;-62
2022/04/22 07:38:10;;;;;;;15.00;13.50;;;;;;;;;;4999603;28;20203;-62
2022/04/22 07:40:40;;;;;;;15.37;13.70;;;;;;;;;;4990984;28;20207;-62
2022/04/22 07:48:40;;;;;;;14.13;12.73;;;;;;;;;;5011943;28;20199;-63
2022/04/22 07:51:08;;;;;;;15.60;13.90;;;;;;;;;;4992150;28;20216;-64
2022/04/22 07:53:35;;;;;;;16.47;13.90;;;;;;;;;;4992648;28;20205;-63
2022/04/22 07:56:07;;;;;;;15.33;13.73;;;;;;;;;;5000079;28;20250;-63
2022/04/22 07:58:34;;;;;;;15.43;12.90;;;;;;;;;;5002593;28;20206;-62
2022/04/22 08:01:02;;;;;;;14.93;13.23;;;;;;;;;;5000898;28;20992;-61
2022/04/22 08:03:29;;;;;;;14.27;12.77;;;;;;;;;;4992522;28;20207;-62
2022/04/22 08:05:57;;;;;;;14.27;12.87;;;;;;;;;;4994414;28;20231;-63
2022/04/22 08:08:28;;;;;;;15.13;13.43;;;;;;;;;;4991367;28;20198;-61
2022/04/22 08:10:55;;;;;;;14.13;12.60;;;;;;;;;;4991007;28;20448;-62
2022/04/22 08:13:26;;;;;;;15.23;13.53;;;;;;;;;;4999923;28;20209;-64
2022/04/22 08:15:53;;;;;;;15.67;14.00;;;;;;;;;;4990078;28;20223;-62
2022/04/22 08:18:21;;;;;;;15.70;13.87;;;;;;;;;;4994460;28;20207;-61
2022/04/22 08:20:48;;;;;;;15.43;13.73;;;;;;;;;;4998782;28;20287;-63
2022/04/22 08:23:20;;;;;;;15.07;13.47;;;;;;;;;;4998700;28;20239;-63
2022/04/22 08:25:47;;;;;;;16.87;13.07;;;;;;;;;;4998678;28;20227;-62
2022/04/22 08:28:15;;;;;;;15.83;13.67;;;;;;;;;;4995171;28;20207;-63
2022/04/22 08:30:42;;;;;;;16.17;14.47;;;;;;;;;;5007574;28;20211;-61
2022/04/22 08:33:10;;;;;;;16.00;14.20;;;;;;;;;;4997569;28;20298;-63
2022/04/22 08:35:37;;;;;;;14.97;13.40;;;;;;;;;;5002774;28;20238;-62
2022/04/22 08:38:06;;;;;;;15.73;13.27;;;;;;;;;;4992932;28;20209;-63
2022/04/22 08:40:38;;;;;;;15.70;14.03;;;;;;;;;;4998462;28;20591;-63
2022/04/22 08:43:11;;;;;;;15.97;14.33;;;;;;;;;;4996698;28;20234;-62
2022/04/22 08:45:39;;;;;;;14.80;13.23;;;;;;;;;;4979713;28;20233;-62
2022/04/22 08:50:55;;;;;;;15.90;13.67;;;;;;;;;;5009335;28;20209;-62
2022/04/22 08:53:24;;;;;;;16.10;13.67;;;;;;;;;;5003207;28;20208;-63
2022/04/22 08:55:57;;;;;;;14.83;13.33;;;;;;;;;;4996782;28;20646;-63
2022/04/22 08:58:27;;;;;;;15.33;13.73;;;;;;;;;;5001721;28;20249;-62
2022/04/22 09:00:58;;;;;;;17.03;13.70;;;;;;;;;;4991632;28;20209;-63
2022/04/22 09:03:30;;;;;;;14.77;13.27;;;;;;;;;;4987546;28;20237;-63
2022/04/22 09:05:57;;;;;;;15.07;13.47;;;;;;;;;;5007729;28;20238;-62
2022/04/22 09:08:28;;;;;;;13.80;12.50;;;;;;;;;;4985419;28;20203;-62
2022/04/22 09:10:56;;;;;;;14.53;13.03;;;;;;;;;;5001177;28;20211;-63
2022/04/22 09:13:27;;;;;;;14.23;12.83;;;;;;;;;;4989238;28;20219;-62
2022/04/22 09:15:55;;;;;;;14.67;13.13;;;;;;;;;;4984768;28;20230;-63
2022/04/22 09:18:39;;;;;;;14.30;12.90;;;;;;;;;;4994995;28;20223;-63
2022/04/22 09:21:14;;;;;;;14.93;13.10;;;;;;;;;;4994882;28;20234;-63
2022/04/22 09:23:42;;;;;;;14.83;13.30;;;;;;;;;;4993680;28;20254;-63
2022/04/22 09:26:21;;;;;;;14.77;13.27;;;;;;;;;;4986138;28;20238;-63
2022/04/22 09:29:05;;;;;;;14.30;12.80;;;;;;;;;;4996172;28;20984;-63
2022/04/22 09:31:46;;;;;;;14.50;13.00;;;;;;;;;;4996701;28;20707;-64
2022/04/22 09:34:13;;;;;;;15.20;13.60;;;;;;;;;;4990551;28;20710;-64
2022/04/22 09:45:01;;;;;;;14.17;12.77;;;;;;;;;;5012321;28;20771;-63
2022/04/22 09:47:30;;;;;;;13.80;12.10;;;;;;;;;;5003404;28;20204;-63
2022/04/22 09:49:58;;;;;;;13.90;12.47;;;;;;;;;;4987468;28;20266;-65
2022/04/22 09:52:30;;;;;;;14.03;12.60;;;;;;;;;;4991563;28;20288;-63
2022/04/22 09:54:59;;;;;;;13.03;11.73;;;;;;;;;;4988952;28;20238;-63
2022/04/22 09:57:58;;;;;;;14.07;12.67;;;;;;;;;;5009531;28;20226;-63
2022/04/22 10:00:27;;;;;;;13.43;12.03;;;;;;;;;;4994818;28;20704;-63
2022/04/22 10:02:55;;;;;;;13.63;12.30;;;;;;;;;;4990002;28;20230;-63
2022/04/22 10:05:26;;;;;;;13.40;12.00;;;;;;;;;;4990639;28;20227;-61
2022/04/22 10:07:55;;;;;;;13.03;11.73;;;;;;;;;;4990897;28;20295;-62
2022/04/22 10:10:28;;;;;;;12.10;10.90;;;;;;;;;;4992674;28;20222;-63
2022/04/22 10:12:59;;;;;;;11.77;10.63;;;;;;;;;;4987088;28;20206;-61
2022/04/22 10:15:29;;;;;;;12.47;11.20;;;;;;;;;;4991953;28;20260;-61
2022/04/22 10:17:57;;;;;;;12.73;10.43;;;;;;;;;;5006588;28;20215;-62
2022/04/22 10:20:25;;;;;;;11.67;10.47;;;;;;;;;;4995944;28;20748;-62
2022/04/22 10:22:53;;;;;;;12.10;10.63;;;;;;;;;;4997941;28;20272;-61
2022/04/22 10:25:20;;;;;;;12.13;9.93;;;;;;;;;;4993246;28;20242;-62
2022/04/22 10:27:49;;;;;;;10.80;9.70;;;;;;;;;;5002779;28;20223;-61
2022/04/22 10:30:16;;;;;;;11.97;10.70;;;;;;;;;;5003819;28;20210;-61
2022/04/22 10:32:45;;;;;;;11.73;10.40;;;;;;;;;;5001506;28;20211;-64
2022/04/22 10:35:14;;;;;;;11.43;10.33;;;;;;;;;;5002896;28;20250;-63
2022/04/22 10:37:44;;;;;;;10.20;9.20;;;;;;;;;;4999784;28;20234;-62
2022/04/22 10:40:18;;;;;;;11.83;10.73;;;;;;;;;;5010532;28;20214;-62
2022/04/22 10:42:47;;;;;;;11.97;10.20;;;;;;;;;;5013505;28;20264;-61
2022/04/22 10:48:00;;;;;;;10.53;9.53;;;;;;;;;;5020007;28;20203;-62
2022/04/22 10:50:28;;;;;;;10.63;9.20;;;;;;;;;;5018789;28;20229;-62
2022/04/22 10:53:03;;;;;;;9.10;8.07;;;;;;;;;;4998155;28;20269;-63
2022/04/22 10:55:32;;;;;;;10.10;8.73;;;;;;;;;;5016115;28;20249;-63
2022/04/22 10:58:15;;;;;;;10.33;9.00;;;;;;;;;;4996117;28;20218;-62
2022/04/22 11:00:42;;;;;;;10.10;8.60;;;;;;;;;;5026831;28;20639;-62
2022/04/22 11:03:18;;;;;;;9.73;8.73;;;;;;;;;;5013772;28;20266;-62
2022/04/22 11:05:53;;;;;;;11.43;9.77;;;;;;;;;;5019693;28;20245;-64
2022/04/22 11:08:30;;;;;;;9.10;8.23;;;;;;;;;;5017362;28;20198;-64
2022/04/22 11:10:58;;;;;;;9.57;8.48;;;;;;;;;;5015909;28;20206;-63
2022/04/22 11:13:33;;;;;;;8.90;8.00;;;;;;;;;;5014367;28;20203;-64
2022/04/22 11:16:08;;;;;;;8.63;7.73;;;;;;;;;;5017360;28;20226;-61
2022/04/22 11:18:36;;;;;;;9.13;8.23;;;;;;;;;;5012435;28;20209;-64
2022/04/22 11:21:04;;;;;;;8.53;7.70;;;;;;;;;;5005822;28;21034;-63
2022/04/22 11:23:36;;;;;;;8.77;7.97;;;;;;;;;;5008850;28;20814;-63
2022/04/22 11:26:04;;;;;;;8.23;7.40;;;;;;;;;;5015451;28;20247;-62
2022/04/22 11:28:34;;;;;;;9.07;8.27;;;;;;;;;;5020234;28;20215;-63
2022/04/22 11:31:06;;;;;;;8.32;7.10;;;;;;;;;;4997691;28;20207;-62
2022/04/22 11:33:45;;;;;;;9.32;8.38;;;;;;;;;;5024670;28;20701;-62
2022/04/22 11:36:13;;;;;;;9.43;8.45;;;;;;;;;;5004675;28;20261;-63
2022/04/22 11:38:47;;;;;;;13.85;12.45;;;;;;;;;;5014341;28;20215;-63
2022/04/22 11:41:15;;;;;;;9.05;7.55;;;;;;;;;;5008120;28;20257;-63
2022/04/22 11:43:43;;;;;;;8.63;7.72;;;;;;;;;;5015624;28;20234;-62
2022/04/22 11:46:12;;;;;;;7.22;6.63;;;;;;;;;;5001012;28;20321;-62
2022/04/22 11:48:45;;;;;;;8.57;7.35;;;;;;;;;;5001843;28;20203;-62
2022/04/22 11:51:21;;;;;;;8.82;7.93;;;;;;;;;;5010893;28;20210;-62
2022/04/22 11:53:53;;;;;;;8.07;7.28;;;;;;;;;;5003387;28;20629;-63
2022/04/22 11:56:21;;;;;;;9.18;8.38;;;;;;;;;;5004282;28;20262;-63
2022/04/22 11:58:53;;;;;;;8.68;7.88;;;;;;;;;;5007424;28;20298;-62
2022/04/22 12:07:00;;;;;;;8.23;7.43;;;;;;;;;;5012737;28;20259;-62
2022/04/22 12:09:28;;;;;;;10.32;7.40;;;;;;;;;;5022841;28;20199;-63
2022/04/22 12:11:57;;;;;;;8.52;7.72;;;;;;;;;;5021694;28;20596;-61
2022/04/22 12:14:26;;;;;;;8.70;7.90;;;;;;;;;;5005427;28;20260;-62
2022/04/22 12:17:00;;;;;;;8.98;8.18;;;;;;;;;;5013141;28;20208;-63
2022/04/22 12:19:28;;;;;;;9.40;8.40;;;;;;;;;;5013983;28;20222;-62
2022/04/22 12:21:55;;;;;;;8.38;7.57;;;;;;;;;;5012652;28;20222;-64
2022/04/22 12:24:23;;;;;;;8.38;7.07;;;;;;;;;;4998990;28;20260;-63
2022/04/22 12:26:54;;;;;;;8.13;7.15;;;;;;;;;;4993645;28;20229;-63
2022/04/22 12:29:28;;;;;;;8.40;7.70;;;;;;;;;;5008229;28;20261;-62
2022/04/22 12:31:56;;;;;;;7.22;6.63;;;;;;;;;;4998410;28;20210;-62
2022/04/22 12:34:31;;;;;;;9.00;8.20;;;;;;;;;;5018414;28;20241;-62
2022/04/22 12:37:00;;;;;;;7.38;6.68;;;;;;;;;;5006648;28;20230;-63
2022/04/22 12:39:34;;;;;;;7.90;7.30;;;;;;;;;;5022293;28;20284;-63
2022/04/22 12:42:03;;;;;;;8.32;7.10;;;;;;;;;;5014281;28;20211;-64
2022/04/22 12:44:31;;;;;;;8.15;7.20;;;;;;;;;;5021657;28;20618;-63
2022/04/22 12:52:44;;;;;;;8.70;7.80;;;;;;;;;;5021969;28;20207;-63
2022/04/22 12:55:12;;;;;;;9.20;8.30;;;;;;;;;;5027004;28;20281;-64
2022/04/22 12:57:40;;;;;;;8.70;7.90;;;;;;;;;;5009832;28;20207;-63
2022/04/22 13:00:14;;;;;;;7.25;6.63;;;;;;;;;;5012139;28;20210;-63
2022/04/22 13:03:03;;;;;;;9.18;8.27;;;;;;;;;;5012006;28;20221;-64
2022/04/22 13:05:32;;;;;;;8.75;7.50;;;;;;;;;;5017465;28;20223;-62
2022/04/22 13:08:09;;;;;;;9.10;8.20;;;;;;;;;;5009476;28;20568;-62
2022/04/22 13:10:37;;;;;;;8.80;8.00;;;;;;;;;;5020454;28;20213;-62
2022/04/22 13:13:10;;;;;;;8.55;7.72;;;;;;;;;;5023167;28;20212;-63
2022/04/22 13:15:37;;;;;;;8.40;7.45;;;;;;;;;;5024054;28;20711;-64
2022/04/22 13:18:05;;;;;;;8.30;7.60;;;;;;;;;;5004369;28;20223;-63
2022/04/22 13:20:32;;;;;;;9.25;7.63;;;;;;;;;;5003756;28;20199;-64
2022/04/22 13:23:00;;;;;;;8.27;7.40;;;;;;;;;;5001688;28;20266;-63
2022/04/22 13:25:27;;;;;;;10.68;8.50;;;;;;;;;;5021251;28;20227;-63
2022/04/22 13:27:54;;;;;;;9.75;8.48;;;;;;;;;;5020778;28;20666;-64
2022/04/22 13:30:22;;;;;;;9.05;8.15;;;;;;;;;;5025460;28;20573;-63
2022/04/22 13:32:52;;;;;;;9.25;8.35;;;;;;;;;;5009943;28;20297;-63
2022/04/22 13:35:20;;;;;;;9.45;8.50;;;;;;;;;;5013366;28;20273;-64
2022/04/22 13:37:48;;;;;;;10.38;9.10;;;;;;;;;;4990332;28;20845;-64
2022/04/22 13:40:16;;;;;;;9.95;9.05;;;;;;;;;;5004023;28;20219;-64
2022/04/22 13:42:45;;;;;;;10.93;8.95;;;;;;;;;;4994374;28;20295;-63
2022/04/22 13:53:31;;;;;;;9.70;8.63;;;;;;;;;;5008872;28;20608;-64
2022/04/22 13:55:58;;;;;;;9.10;8.18;;;;;;;;;;4994134;28;20285;-64
2022/04/22 13:58:26;;;;;;;8.57;7.70;;;;;;;;;;4989263;28;22674;-63
2022/04/22 14:00:54;;;;;;;9.57;8.60;;;;;;;;;;4998992;28;20214;-63
2022/04/22 14:03:21;;;;;;;9.60;8.10;;;;;;;;;;4995337;28;20230;-63
2022/04/22 14:05:49;;;;;;;9.18;7.85;;;;;;;;;;5017112;28;20238;-63
2022/04/22 14:08:16;;;;;;;8.20;7.38;;;;;;;;;;5001381;28;20554;-63
2022/04/22 14:10:46;;;;;;;9.20;8.30;;;;;;;;;;5000595;28;20230;-64
2022/04/22 14:13:14;;;;;;;8.18;7.40;;;;;;;;;;5015989;28;20258;-64
2022/04/22 14:15:42;;;;;;;7.50;6.90;;;;;;;;;;5014579;28;20235;-64
2022/04/22 14:18:10;;;;;;;8.05;7.35;;;;;;;;;;5002459;28;20624;-63
2022/04/22 14:20:37;;;;;;;8.57;7.88;;;;;;;;;;4996337;28;20586;-63
2022/04/22 14:23:05;;;;;;;7.88;7.07;;;;;;;;;;5019425;28;20700;-63
2022/04/22 14:25:32;;;;;;;8.43;7.15;;;;;;;;;;5009537;28;20222;-64
2022/04/22 14:28:00;;;;;;;8.27;7.47;;;;;;;;;;5001002;28;20210;-64
2022/04/22 14:30:27;;;;;;;8.82;8.00;;;;;;;;;;5014283;28;20205;-63
2022/04/22 14:32:55;;;;;;;10.20;8.57;;;;;;;;;;4999865;28;20759;-63
2022/04/22 14:35:23;;;;;;;8.48;7.55;;;;;;;;;;5017127;28;20301;-64
2022/04/22 14:37:51;;;;;;;9.80;8.82;;;;;;;;;;5008209;28;20261;-64
2022/04/22 14:40:18;;;;;;;8.43;7.57;;;;;;;;;;5014095;28;23813;-63
2022/04/22 14:42:46;;;;;;;8.68;7.95;;;;;;;;;;5012190;28;20211;-64
2022/04/22 14:45:14;;;;;;;8.40;7.70;;;;;;;;;;5013532;28;20241;-64
2022/04/22 14:47:47;;;;;;;7.65;7.00;;;;;;;;;;4999434;28;20628;-63
2022/04/22 14:50:14;;;;;;;8.23;7.43;;;;;;;;;;5015657;28;20206;-63
2022/04/22 14:52:42;;;;;;;8.40;7.60;;;;;;;;;;4999218;28;20641;-64
2022/04/22 14:55:10;;;;;;;8.98;8.27;;;;;;;;;;5019371;28;20222;-65
2022/04/22 14:57:38;;;;;;;8.25;7.38;;;;;;;;;;5006431;28;20217;-64
2022/04/22 15:00:09;;;;;;;6.97;6.28;;;;;;;;;;5004826;28;20202;-64
2022/04/22 15:02:36;;;;;;;8.50;6.80;;;;;;;;;;5024393;28;20198;-64
2022/04/22 15:05:05;;;;;;;8.52;6.97;;;;;;;;;;5003741;28;20322;-64
2022/04/22 15:07:33;;;;;;;7.93;6.97;;;;;;;;;;5020889;28;20209;-64
2022/04/22 15:10:00;;;;;;;8.05;7.32;;;;;;;;;;5030495;28;20207;-63
2022/04/22 15:12:28;;;;;;;8.23;7.10;;;;;;;;;;5018925;28;20750;-64
2022/04/22 15:14:56;;;;;;;8.10;7.22;;;;;;;;;;5000590;28;20332;-64
2022/04/22 15:25:43;;;;;;;7.78;7.07;;;;;;;;;;5017082;28;20696;-63
2022/04/22 15:28:10;;;;;;;8.23;7.22;;;;;;;;;;5010635;28;20281;-63
2022/04/22 15:31:16;;;;;;;7.68;6.97;;;;;;;;;;4994315;28;20210;-63
2022/04/22 15:33:44;;;;;;;7.95;7.15;;;;;;;;;;4997677;28;20211;-63
2022/04/22 15:36:13;;;;;;;7.88;7.05;;;;;;;;;;5015063;28;20639;-62
2022/04/22 15:38:43;;;;;;;7.55;6.78;;;;;;;;;;4994316;28;20220;-61
2022/04/22 15:41:12;;;;;;;9.35;7.38;;;;;;;;;;5012886;28;20888;-62
2022/04/22 15:43:44;;;;;;;8.40;7.70;;;;;;;;;;5010044;28;22262;-64
2022/04/22 15:46:12;;;;;;;12.70;7.70;;;;;;;;;;5012907;28;20281;-63
2022/04/22 15:48:40;;;;;;;8.57;7.03;;;;;;;;;;5011171;28;20206;-63
2022/04/22 15:51:09;;;;;;;11.05;7.63;;;;;;;;;;5027400;23;20238;-64
2022/04/22 15:53:37;;;;;;;7.78;6.95;;;;;;;;;;5024394;28;20203;-66